Time;durP1;ratioP1;P1;durP2;ratioP2;P2;SDS_P1;SDS_P2;PMS_P1;PMS_P2;Temp;Humidity;BMP_temperature;BMP_pressure;BME280_temperature;BME280_humidity;BME280_pressure;Samples;Min_cycle;Max_cycle;Signal;HPM_P1;HPM_P2
2022/05/21 00:00:04;;;;;;;;;;;25.90;43.10;;;;;;660521;30;1263;-89
2022/05/21 00:00:30;;;;;;;;;;;25.80;39.80;;;;;;657886;30;1238;-89
2022/05/21 00:00:50;;;;;;;;;;;24.90;37.90;;;;;;657874;30;1253;-89
2022/05/21 00:01:19;;;;;;;;;;;28.60;42.60;;;;;;657912;30;1243;-89
2022/05/21 00:01:40;;;;;;;;;;;26.00;38.60;;;;;;657949;30;1240;-89
2022/05/21 00:02:04;;;;;;;;;;;25.60;42.00;;;;;;660404;30;1203;-89
2022/05/21 00:02:24;;;;;;;;;;;25.80;39.50;;;;;;657825;30;1097;-90
2022/05/21 00:02:47;;;;;;;;;;;25.90;43.20;;;;;;659797;30;1131;-90
2022/05/21 00:03:09;;;;;;;;;;;25.70;42.50;;;;;;660451;29;1109;-89
2022/05/21 00:03:30;;;;;;;;;;;25.80;38.20;;;;;;660389;29;1128;-89
2022/05/21 00:03:54;;;;;;;;;;;25.70;40.40;;;;;;657905;30;1180;-90
2022/05/21 00:04:22;;;;;;;;;;;24.40;38.20;;;;;;657962;30;1187;-90
2022/05/21 00:04:53;;;;;;;;;;;;;;;;;;;;;
2022/05/21 00:05:15;;;;;;;;;;;25.80;44.20;;;;;;657662;30;1086;-89
2022/05/21 00:05:39;;;;;;;;;;;25.70;39.40;;;;;;658252;29;1294;-89
2022/05/21 00:06:02;;;;;;;;;;;25.90;40.00;;;;;;658328;30;1116;-89
2022/05/21 00:06:23;;;;;;;;;;;25.90;42.00;;;;;;657830;30;1291;-89
2022/05/21 00:06:48;;;;;;;;;;;25.90;44.80;;;;;;657965;30;1191;-90
2022/05/21 00:07:12;;;;;;;;;;;26.00;40.60;;;;;;657778;30;1250;-89
2022/05/21 00:07:33;;;;;;;;;;;25.10;36.60;;;;;;657868;30;1343;-89
2022/05/21 00:07:54;;;;;;;;;;;27.00;40.60;;;;;;659630;30;1449;-90
2022/05/21 00:08:26;;;;;;;;;;;25.80;43.60;;;;;;661577;29;1266;-89
2022/05/21 00:09:09;;;;;;;;;;;26.00;37.60;;;;;;660443;30;1103;-89
2022/05/21 00:09:52;;;;;;;;;;;25.40;40.20;;;;;;660389;29;1318;-90
2022/05/21 00:11:18;;;;;;;;;;;;;;;;;;;;;
2022/05/21 00:11:54;;;;;;;;;;;;;;;;;;;;;
2022/05/21 00:12:43;;;;;;;;;;;24.90;39.00;;;;;;665474;29;1154;-90
2022/05/21 00:13:29;;;;;;;;;;;25.90;40.20;;;;;;665339;29;1095;-89
2022/05/21 00:15:50;;;;;;;;;;;25.90;39.40;;;;;;654905;30;1872;-90
2022/05/21 00:16:24;;;;;;;;;;;26.00;38.40;;;;;;655047;30;1197;-91
2022/05/21 00:16:59;;;;;;;;;;;26.10;41.50;;;;;;655017;30;1298;-90
2022/05/21 00:17:31;;;;;;;;;;;29.10;39.50;;;;;;652399;30;1220;-90
2022/05/21 00:18:02;;;;;;;;;;;;;;;;;;;;;
2022/05/21 00:18:25;;;;;;;;;;;28.70;42.50;;;;;;652773;30;1179;-90
2022/05/21 00:18:47;;;;;;;;;;;25.70;41.00;;;;;;652509;30;1315;-89
2022/05/21 00:19:16;;;;;;;;;;;25.80;42.40;;;;;;652579;30;1240;-91
2022/05/21 00:19:39;;;;;;;;;;;26.30;41.20;;;;;;652917;30;1282;-90
2022/05/21 00:21:03;;;;;;;;;;;28.50;39.10;;;;;;653114;30;675;-91
2022/05/21 00:21:26;;;;;;;;;;;26.00;42.50;;;;;;653559;30;1133;-90
2022/05/21 00:21:49;;;;;;;;;;;26.90;40.90;;;;;;654644;30;1138;-89
2022/05/21 00:22:15;;;;;;;;;;;26.10;42.60;;;;;;650365;30;1218;-89
2022/05/21 00:22:44;;;;;;;;;;;25.70;39.30;;;;;;650175;30;1115;-89
2022/05/21 00:23:41;;;;;;;;;;;28.10;38.80;;;;;;650100;30;1253;-89
2022/05/21 00:24:25;;;;;;;;;;;25.70;37.00;;;;;;646667;30;1221;-89
2022/05/21 00:24:46;;;;;;;;;;;26.10;42.30;;;;;;648059;30;1319;-90
2022/05/21 00:25:15;;;;;;;;;;;25.80;44.70;;;;;;648185;30;1146;-89
2022/05/21 00:25:36;;;;;;;;;;;24.80;39.00;;;;;;645735;30;1140;-89
2022/05/21 00:25:59;;;;;;;;;;;22.90;43.80;;;;;;643892;30;1331;-89
2022/05/21 00:26:30;;;;;;;;;;;26.20;48.10;;;;;;645707;30;1194;-90
2022/05/21 00:27:01;;;;;;;;;;;23.70;38.90;;;;;;645298;30;1198;-90
2022/05/21 00:27:25;;;;;;;;;;;25.80;40.90;;;;;;646321;30;1273;-89
2022/05/21 00:27:51;;;;;;;;;;;24.00;35.90;;;;;;648204;30;1217;-89
2022/05/21 00:28:17;;;;;;;;;;;25.70;41.20;;;;;;646920;30;1241;-89
2022/05/21 00:29:28;;;;;;;;;;;25.80;41.80;;;;;;647818;30;1212;-90
2022/05/21 00:29:57;;;;;;;;;;;26.10;40.70;;;;;;645467;30;1284;-90
2022/05/21 00:30:35;;;;;;;;;;;24.60;36.30;;;;;;645875;30;1238;-90
2022/05/21 00:31:14;;;;;;;;;;;27.00;41.80;;;;;;643239;30;1324;-90
2022/05/21 00:31:36;;;;;;;;;;;25.10;36.50;;;;;;641348;30;1331;-89
2022/05/21 00:32:05;;;;;;;;;;;25.80;44.20;;;;;;643324;30;1170;-90
2022/05/21 00:32:34;;;;;;;;;;;26.00;41.80;;;;;;643416;30;1123;-90
2022/05/21 00:33:08;;;;;;;;;;;25.90;39.80;;;;;;642798;30;1184;-90
2022/05/21 00:34:01;;;;;;;;;;;24.70;36.30;;;;;;644750;30;1306;-91
2022/05/21 00:34:30;;;;;;;;;;;25.90;37.10;;;;;;645373;30;1272;-90
2022/05/21 00:34:53;;;;;;;;;;;27.50;43.00;;;;;;644901;30;1372;-90
2022/05/21 00:35:28;;;;;;;;;;;25.80;40.80;;;;;;645404;30;1352;-89
2022/05/21 00:35:54;;;;;;;;;;;25.90;39.90;;;;;;645715;30;1175;-90
2022/05/21 00:36:23;;;;;;;;;;;26.10;41.90;;;;;;644445;30;1241;-90
2022/05/21 00:36:52;;;;;;;;;;;24.10;35.70;;;;;;644522;30;1259;-90
2022/05/21 00:37:28;;;;;;;;;;;25.50;36.70;;;;;;647663;30;1264;-90
2022/05/21 00:37:51;;;;;;;;;;;26.00;41.00;;;;;;645976;30;1367;-90
2022/05/21 00:38:17;;;;;;;;;;;26.30;44.40;;;;;;645488;30;1225;-89
2022/05/21 00:38:43;;;;;;;;;;;26.30;41.00;;;;;;645537;30;1232;-89
2022/05/21 00:39:08;;;;;;;;;;;24.20;40.00;;;;;;645673;30;1166;-89
2022/05/21 00:39:29;;;;;;;;;;;26.10;40.90;;;;;;645741;30;1134;-90
2022/05/21 00:39:50;;;;;;;;;;;25.80;38.50;;;;;;647717;30;1216;-89
2022/05/21 00:40:13;;;;;;;;;;;25.00;41.20;;;;;;645294;30;1149;-89
2022/05/21 00:40:37;;;;;;;;;;;25.90;36.90;;;;;;645749;30;1249;-89
2022/05/21 00:41:03;;;;;;;;;;;25.30;39.50;;;;;;643335;30;1166;-90
2022/05/21 00:41:41;;;;;;;;;;;26.20;37.20;;;;;;642974;30;1296;-90
2022/05/21 00:42:10;;;;;;;;;;;24.60;36.20;;;;;;643103;30;1272;-90
2022/05/21 00:42:38;;;;;;;;;;;26.00;36.90;;;;;;643398;30;1247;-90
2022/05/21 00:43:18;;;;;;;;;;;23.50;39.00;;;;;;645717;30;1264;-90
2022/05/21 00:43:47;;;;;;;;;;;26.10;40.70;;;;;;643343;30;1259;-90
2022/05/21 00:44:30;;;;;;;;;;;26.10;37.40;;;;;;643291;30;1366;-89
2022/05/21 00:44:55;;;;;;;;;;;25.10;36.60;;;;;;643262;30;1127;-88
2022/05/21 00:45:30;;;;;;;;;;;;;;;;;;;;;
2022/05/21 00:45:59;;;;;;;;;;;23.10;40.70;;;;;;640925;30;1120;-88
2022/05/21 00:46:29;;;;;;;;;;;25.70;37.00;;;;;;638775;31;1451;-89
2022/05/21 00:46:52;;;;;;;;;;;23.90;35.70;;;;;;643045;30;1496;-90
2022/05/21 00:47:13;;;;;;;;;;;26.90;41.10;;;;;;641043;30;1223;-89
2022/05/21 00:47:36;;;;;;;;;;;26.00;47.10;;;;;;640866;30;1287;-89
2022/05/21 00:47:57;;;;;;;;;;;29.30;42.80;;;;;;641215;30;1261;-90
2022/05/21 00:48:21;;;;;;;;;;;25.80;38.30;;;;;;641132;30;1307;-90
2022/05/21 00:48:42;;;;;;;;;;;26.10;37.30;;;;;;637803;31;1518;-90
2022/05/21 00:49:24;;;;;;;;;;;25.90;40.50;;;;;;636686;31;1202;-89
2022/05/21 00:49:53;;;;;;;;;;;25.90;36.70;;;;;;639907;30;1238;-89
2022/05/21 00:50:21;;;;;;;;;;;25.80;36.70;;;;;;639723;30;1248;-90
2022/05/21 00:50:50;;;;;;;;;;;26.00;40.00;;;;;;641134;30;1404;-90
2022/05/21 00:51:19;;;;;;;;;;;25.90;44.80;;;;;;643680;30;1276;-89
2022/05/21 00:51:46;;;;;;;;;;;23.50;37.10;;;;;;642067;30;1197;-90
2022/05/21 00:52:15;;;;;;;;;;;26.00;36.80;;;;;;639975;30;1126;-89
2022/05/21 00:52:36;;;;;;;;;;;25.70;36.70;;;;;;640893;30;1168;-89
2022/05/21 00:53:03;;;;;;;;;;;25.80;39.90;;;;;;648178;30;1338;-90
2022/05/21 00:53:29;;;;;;;;;;;25.80;40.50;;;;;;648265;30;1307;-89
2022/05/21 00:54:18;;;;;;;;;;;25.80;38.50;;;;;;648345;30;1120;-89
2022/05/21 00:54:57;;;;;;;;;;;25.90;36.80;;;;;;648467;30;1350;-90
2022/05/21 00:55:22;;;;;;;;;;;25.80;36.80;;;;;;649032;30;1207;-88
2022/05/21 00:55:49;;;;;;;;;;;25.90;39.40;;;;;;646279;30;1382;-89
2022/05/21 00:56:13;;;;;;;;;;;24.70;36.00;;;;;;644156;30;1083;-90
2022/05/21 00:57:02;;;;;;;;;;;25.70;39.70;;;;;;646971;30;1094;-90
2022/05/21 00:57:25;;;;;;;;;;;26.20;37.10;;;;;;647567;30;1127;-89
2022/05/21 00:59:47;;;;;;;;;;;26.10;39.50;;;;;;647875;30;1263;-89
2022/05/21 00:59:53;;;;;;;;;;;25.80;38.50;;;;;;651503;30;1252;-90
2022/05/21 01:00:19;;;;;;;;;;;25.70;40.40;;;;;;648968;30;1344;-90
2022/05/21 01:00:44;;;;;;;;;;;25.20;36.40;;;;;;648935;30;1056;-90
2022/05/21 01:01:07;;;;;;;;;;;25.80;40.00;;;;;;648928;30;1113;-90
2022/05/21 01:01:31;;;;;;;;;;;25.40;39.10;;;;;;648899;30;1307;-90
2022/05/21 01:01:53;;;;;;;;;;;26.10;39.00;;;;;;652674;30;1131;-90
2022/05/21 01:02:25;;;;;;;;;;;25.90;40.10;;;;;;655837;30;1351;-90
2022/05/21 01:02:56;;;;;;;;;;;25.00;38.70;;;;;;653842;30;1124;-88
2022/05/21 01:03:21;;;;;;;;;;;25.90;37.10;;;;;;655143;30;1295;-89
2022/05/21 01:03:44;;;;;;;;;;;25.80;40.80;;;;;;654510;30;1233;-89
2022/05/21 01:04:05;;;;;;;;;;;26.00;37.20;;;;;;654686;30;1247;-90
2022/05/21 01:04:26;;;;;;;;;;;23.40;38.60;;;;;;653264;30;1196;-90
2022/05/21 01:04:48;;;;;;;;;;;25.60;41.30;;;;;;653071;30;1403;-89
2022/05/21 01:05:11;;;;;;;;;;;24.50;38.60;;;;;;655829;30;1188;-90
2022/05/21 01:05:34;;;;;;;;;;;25.80;38.70;;;;;;656991;30;1323;-90
2022/05/21 01:05:55;;;;;;;;;;;24.70;37.10;;;;;;654446;30;1137;-89
2022/05/21 01:06:16;;;;;;;;;;;25.80;41.10;;;;;;651677;30;1149;-89
2022/05/21 01:06:36;;;;;;;;;;;25.70;43.00;;;;;;653654;30;1181;-88
2022/05/21 01:06:59;;;;;;;;;;;25.90;39.50;;;;;;652804;30;1243;-90
2022/05/21 01:07:19;;;;;;;;;;;25.70;39.50;;;;;;654417;30;1145;-90
2022/05/21 01:07:41;;;;;;;;;;;25.70;43.30;;;;;;655499;30;1149;-89
2022/05/21 01:08:02;;;;;;;;;;;25.80;38.60;;;;;;656733;30;1117;-89
2022/05/21 01:08:23;;;;;;;;;;;25.70;42.30;;;;;;659121;30;1296;-90
2022/05/21 01:08:44;;;;;;;;;;;27.60;43.60;;;;;;657244;30;1155;-90
2022/05/21 01:09:16;;;;;;;;;;;25.70;41.10;;;;;;653619;30;1199;-89
2022/05/21 01:09:39;;;;;;;;;;;27.40;41.50;;;;;;651065;30;1277;-90
2022/05/21 01:10:00;;;;;;;;;;;25.80;37.90;;;;;;648325;30;1438;-89
2022/05/21 01:10:22;;;;;;;;;;;25.80;43.60;;;;;;648495;30;1204;-90
2022/05/21 01:10:47;;;;;;;;;;;25.90;39.60;;;;;;650489;30;1410;-89
2022/05/21 01:11:11;;;;;;;;;;;25.90;39.00;;;;;;650768;30;1173;-89
2022/05/21 01:11:35;;;;;;;;;;;25.70;40.60;;;;;;650120;30;1120;-89
2022/05/21 01:11:56;;;;;;;;;;;25.70;39.90;;;;;;646784;30;1141;-90
2022/05/21 01:12:16;;;;;;;;;;;26.10;38.00;;;;;;649374;30;1284;-89
2022/05/21 01:12:39;;;;;;;;;;;25.70;46.20;;;;;;648961;30;1246;-89
2022/05/21 01:13:02;;;;;;;;;;;25.70;38.80;;;;;;651682;30;1264;-91
2022/05/21 01:13:24;;;;;;;;;;;25.80;41.10;;;;;;654115;30;1127;-90
2022/05/21 01:13:47;;;;;;;;;;;25.70;39.60;;;;;;656548;30;1522;-90
2022/05/21 01:14:10;;;;;;;;;;;25.70;38.20;;;;;;658526;30;1227;-89
2022/05/21 01:14:30;;;;;;;;;;;23.00;37.00;;;;;;656045;30;1308;-90
2022/05/21 01:14:54;;;;;;;;;;;25.70;46.10;;;;;;657228;30;1278;-90
2022/05/21 01:15:18;;;;;;;;;;;25.70;42.20;;;;;;656923;30;1143;-90
2022/05/21 01:15:44;;;;;;;;;;;25.70;38.80;;;;;;655713;30;1896;-90
2022/05/21 01:16:05;;;;;;;;;;;25.70;36.90;;;;;;653588;30;1160;-87
2022/05/21 01:16:29;;;;;;;;;;;25.70;43.20;;;;;;649025;30;1197;-89
2022/05/21 01:16:50;;;;;;;;;;;26.70;37.80;;;;;;648506;30;1152;-89
2022/05/21 01:17:11;;;;;;;;;;;25.90;39.00;;;;;;648558;30;1073;-90
2022/05/21 01:17:32;;;;;;;;;;;27.20;50.30;;;;;;651510;30;1173;-91
2022/05/21 01:17:52;;;;;;;;;;;28.10;46.60;;;;;;656172;30;1193;-90
2022/05/21 01:18:13;;;;;;;;;;;25.70;44.10;;;;;;656438;30;1203;-89
2022/05/21 01:18:34;;;;;;;;;;;25.90;45.60;;;;;;656051;30;1151;-90
2022/05/21 01:18:56;;;;;;;;;;;25.80;43.60;;;;;;659258;30;1279;-90
2022/05/21 01:19:27;;;;;;;;;;;25.90;45.00;;;;;;657103;30;1154;-91
2022/05/21 01:20:02;;;;;;;;;;;26.20;37.40;;;;;;655789;30;1490;-89
2022/05/21 01:20:33;;;;;;;;;;;25.90;37.10;;;;;;655628;30;1409;-89
2022/05/21 01:20:58;;;;;;;;;;;25.60;35.90;;;;;;658260;30;1097;-88
2022/05/21 01:21:22;;;;;;;;;;;25.70;38.80;;;;;;661123;29;1171;-89
2022/05/21 01:21:43;;;;;;;;;;;26.00;47.70;;;;;;660980;30;1154;-88
2022/05/21 01:22:06;;;;;;;;;;;26.20;43.30;;;;;;660988;30;1109;-90
2022/05/21 01:22:29;;;;;;;;;;;25.60;46.50;;;;;;658524;30;1350;-89
2022/05/21 01:22:51;;;;;;;;;;;25.80;39.10;;;;;;658658;30;1220;-91
2022/05/21 01:23:12;;;;;;;;;;;24.00;39.20;;;;;;656236;30;1348;-90
2022/05/21 01:23:33;;;;;;;;;;;24.20;41.10;;;;;;657164;30;1222;-90
2022/05/21 01:23:54;;;;;;;;;;;25.70;38.30;;;;;;658562;30;1117;-87
2022/05/21 01:24:14;;;;;;;;;;;25.60;46.60;;;;;;658674;30;846;-90
2022/05/21 01:24:35;;;;;;;;;;;22.60;45.60;;;;;;657969;30;1393;-89
2022/05/21 01:24:56;;;;;;;;;;;24.40;35.10;;;;;;658038;30;1143;-89
2022/05/21 01:25:18;;;;;;;;;;;25.00;38.70;;;;;;655702;30;1263;-88
2022/05/21 01:25:39;;;;;;;;;;;23.30;38.60;;;;;;655399;30;877;-90
2022/05/21 01:26:03;;;;;;;;;;;25.60;38.70;;;;;;653009;30;1238;-89
2022/05/21 01:26:24;;;;;;;;;;;30.00;44.00;;;;;;653994;30;1153;-89
2022/05/21 01:26:45;;;;;;;;;;;24.90;43.50;;;;;;656315;30;1242;-88
2022/05/21 01:27:08;;;;;;;;;;;26.30;41.40;;;;;;658744;30;1334;-89
2022/05/21 01:27:29;;;;;;;;;;;25.30;45.60;;;;;;657754;30;1219;-90
2022/05/21 01:27:50;;;;;;;;;;;25.60;35.90;;;;;;657915;30;1307;-89
2022/05/21 01:28:12;;;;;;;;;;;25.60;40.70;;;;;;656902;30;1164;-88
2022/05/21 01:28:36;;;;;;;;;;;26.00;39.40;;;;;;653373;30;1323;-89
2022/05/21 01:28:57;;;;;;;;;;;25.60;39.80;;;;;;655343;30;1061;-89
2022/05/21 01:29:22;;;;;;;;;;;25.60;43.00;;;;;;655330;30;1315;-89
2022/05/21 01:29:48;;;;;;;;;;;25.80;38.60;;;;;;655222;30;1060;-89
2022/05/21 01:30:10;;;;;;;;;;;26.50;37.60;;;;;;654714;30;1267;-88
2022/05/21 01:30:33;;;;;;;;;;;23.90;39.30;;;;;;652764;30;1234;-89
2022/05/21 01:30:57;;;;;;;;;;;26.00;41.40;;;;;;650820;30;1126;-88
2022/05/21 01:31:18;;;;;;;;;;;26.10;37.20;;;;;;652771;30;1308;-88
2022/05/21 01:31:39;;;;;;;;;;;23.70;45.80;;;;;;652228;30;1492;-90
2022/05/21 01:32:02;;;;;;;;;;;25.60;43.80;;;;;;652893;30;1255;-89
2022/05/21 01:32:25;;;;;;;;;;;23.30;37.10;;;;;;652914;30;1219;-88
2022/05/21 01:32:51;;;;;;;;;;;25.60;43.90;;;;;;654210;30;1188;-89
2022/05/21 01:33:13;;;;;;;;;;;25.60;36.70;;;;;;654439;30;1157;-89
2022/05/21 01:33:38;;;;;;;;;;;26.10;39.00;;;;;;657052;30;1126;-89
2022/05/21 01:34:01;;;;;;;;;;;25.60;39.50;;;;;;657655;30;1171;-90
2022/05/21 01:34:39;;;;;;;;;;;25.80;41.40;;;;;;655694;30;1292;-89
2022/05/21 01:35:00;;;;;;;;;;;26.20;42.50;;;;;;655220;30;1378;-90
2022/05/21 01:35:20;;;;;;;;;;;25.60;46.20;;;;;;654867;30;1151;-90
2022/05/21 01:35:42;;;;;;;;;;;23.90;43.60;;;;;;652596;30;1892;-89
2022/05/21 01:36:06;;;;;;;;;;;26.10;38.10;;;;;;652887;30;1238;-89
2022/05/21 01:36:26;;;;;;;;;;;25.60;42.20;;;;;;655260;30;1218;-88
2022/05/21 01:36:50;;;;;;;;;;;25.80;45.30;;;;;;655202;30;1135;-88
2022/05/21 01:37:13;;;;;;;;;;;25.80;36.80;;;;;;655240;30;1224;-89
2022/05/21 01:37:34;;;;;;;;;;;26.00;48.30;;;;;;656622;30;1099;-89
2022/05/21 01:37:57;;;;;;;;;;;25.60;52.30;;;;;;657627;30;1338;-89
2022/05/21 01:38:20;;;;;;;;;;;26.00;40.40;;;;;;654177;30;1296;-89
2022/05/21 01:38:42;;;;;;;;;;;26.00;43.90;;;;;;656809;30;1118;-88
2022/05/21 01:39:03;;;;;;;;;;;25.60;38.30;;;;;;657640;30;1299;-88
2022/05/21 01:39:24;;;;;;;;;;;26.00;46.70;;;;;;656814;30;1149;-88
2022/05/21 01:39:44;;;;;;;;;;;24.30;43.00;;;;;;656045;30;1187;-89
2022/05/21 01:40:08;;;;;;;;;;;25.80;43.20;;;;;;657755;30;1276;-89
2022/05/21 01:40:29;;;;;;;;;;;26.50;40.20;;;;;;657759;30;1400;-90
2022/05/21 01:40:52;;;;;;;;;;;25.60;48.60;;;;;;654557;30;1361;-89
2022/05/21 01:41:16;;;;;;;;;;;26.10;37.30;;;;;;656244;30;1344;-89
2022/05/21 01:41:37;;;;;;;;;;;26.20;43.20;;;;;;657657;30;1242;-89
2022/05/21 01:41:57;;;;;;;;;;;25.60;44.90;;;;;;655867;30;1359;-89
2022/05/21 01:42:18;;;;;;;;;;;25.20;41.50;;;;;;656184;30;1183;-89
2022/05/21 01:42:42;;;;;;;;;;;25.80;43.10;;;;;;657737;30;830;-90
2022/05/21 01:44:38;;;;;;;;;;;26.20;40.90;;;;;;650345;30;1380;-90
2022/05/21 01:44:59;;;;;;;;;;;25.60;40.20;;;;;;650289;30;1101;-90
2022/05/21 01:45:28;;;;;;;;;;;25.80;43.00;;;;;;647879;30;1197;-89
2022/05/21 01:45:52;;;;;;;;;;;25.60;41.20;;;;;;654518;30;1336;-90
2022/05/21 01:46:15;;;;;;;;;;;25.80;38.80;;;;;;657734;30;1334;-89
2022/05/21 01:46:41;;;;;;;;;;;23.80;38.90;;;;;;657364;30;1624;-88
2022/05/21 01:47:02;;;;;;;;;;;25.80;47.10;;;;;;655278;30;1210;-88
2022/05/21 01:47:31;;;;;;;;;;;26.00;43.20;;;;;;657331;30;1390;-89
2022/05/21 01:47:51;;;;;;;;;;;25.60;45.50;;;;;;657804;30;873;-89
2022/05/21 01:48:19;;;;;;;;;;;22.80;45.30;;;;;;657399;30;1285;-89
2022/05/21 01:48:45;;;;;;;;;;;26.10;41.70;;;;;;657733;30;888;-89
2022/05/21 01:49:08;;;;;;;;;;;26.00;48.40;;;;;;657673;30;1112;-89
2022/05/21 01:49:29;;;;;;;;;;;23.10;49.40;;;;;;657648;30;1275;-88
2022/05/21 01:49:52;;;;;;;;;;;25.80;44.40;;;;;;657777;30;1302;-89
2022/05/21 01:50:15;;;;;;;;;;;25.80;44.00;;;;;;660057;30;1252;-89
2022/05/21 01:50:36;;;;;;;;;;;26.40;42.30;;;;;;660210;30;1153;-89
2022/05/21 01:51:02;;;;;;;;;;;25.80;39.60;;;;;;661497;29;1269;-89
2022/05/21 01:51:32;;;;;;;;;;;25.60;39.60;;;;;;661076;29;1300;-88
2022/05/21 01:51:52;;;;;;;;;;;25.90;48.10;;;;;;660197;30;1230;-88
2022/05/21 01:52:14;;;;;;;;;;;26.50;45.60;;;;;;657631;30;1471;-89
2022/05/21 01:52:35;;;;;;;;;;;26.30;40.70;;;;;;657683;30;1254;-89
2022/05/21 01:53:01;;;;;;;;;;;26.30;44.60;;;;;;658678;30;1248;-89
2022/05/21 01:53:22;;;;;;;;;;;26.10;40.90;;;;;;657685;30;1512;-89
2022/05/21 01:53:46;;;;;;;;;;;25.80;40.20;;;;;;657505;30;1318;-88
2022/05/21 01:54:10;;;;;;;;;;;23.10;35.80;;;;;;659126;30;1181;-89
2022/05/21 01:54:31;;;;;;;;;;;25.60;43.40;;;;;;656042;30;1414;-89
2022/05/21 01:54:54;;;;;;;;;;;25.60;36.50;;;;;;654498;30;1393;-89
2022/05/21 01:55:15;;;;;;;;;;;25.70;41.70;;;;;;652876;30;1185;-89
2022/05/21 01:55:35;;;;;;;;;;;26.20;46.50;;;;;;654117;30;1975;-88
2022/05/21 01:56:04;;;;;;;;;;;25.90;45.80;;;;;;656239;30;1385;-88
2022/05/21 01:56:27;;;;;;;;;;;23.10;35.40;;;;;;655889;30;1203;-88
2022/05/21 01:56:48;;;;;;;;;;;25.60;48.40;;;;;;659538;30;1083;-89
2022/05/21 01:57:11;;;;;;;;;;;26.00;46.80;;;;;;657782;30;1240;-89
2022/05/21 01:57:32;;;;;;;;;;;25.90;45.50;;;;;;657156;30;1115;-88
2022/05/21 01:57:53;;;;;;;;;;;24.80;45.60;;;;;;655229;30;1456;-88
2022/05/21 01:58:14;;;;;;;;;;;25.90;46.10;;;;;;655263;30;1108;-87
2022/05/21 01:58:34;;;;;;;;;;;25.90;38.30;;;;;;655269;30;1143;-89
2022/05/21 01:59:04;;;;;;;;;;;26.20;44.80;;;;;;653495;30;1183;-89
2022/05/21 01:59:25;;;;;;;;;;;25.60;44.30;;;;;;654185;30;1204;-89
2022/05/21 01:59:49;;;;;;;;;;;25.90;39.80;;;;;;654369;30;1116;-89
2022/05/21 02:00:12;;;;;;;;;;;25.60;40.70;;;;;;655052;30;1263;-89
2022/05/21 02:00:34;;;;;;;;;;;26.00;42.90;;;;;;657407;30;1245;-89
2022/05/21 02:00:57;;;;;;;;;;;25.60;39.10;;;;;;657124;30;1246;-89
2022/05/21 02:01:18;;;;;;;;;;;22.80;39.50;;;;;;658990;30;1234;-89
2022/05/21 02:01:38;;;;;;;;;;;25.50;41.30;;;;;;657559;30;1102;-88
2022/05/21 02:02:00;;;;;;;;;;;25.70;46.80;;;;;;655786;30;1270;-90
2022/05/21 02:02:23;;;;;;;;;;;25.90;41.00;;;;;;654469;30;1255;-88
2022/05/21 02:02:43;;;;;;;;;;;26.30;41.20;;;;;;655117;30;1135;-89
2022/05/21 02:03:07;;;;;;;;;;;25.70;46.40;;;;;;655150;30;1092;-89
2022/05/21 02:03:30;;;;;;;;;;;25.90;41.80;;;;;;656154;30;1080;-89
2022/05/21 02:03:50;;;;;;;;;;;26.00;41.00;;;;;;656664;30;1247;-89
2022/05/21 02:04:14;;;;;;;;;;;25.80;44.50;;;;;;656586;30;1186;-88
2022/05/21 02:04:36;;;;;;;;;;;25.80;46.00;;;;;;654907;30;1160;-88
2022/05/21 02:04:56;;;;;;;;;;;24.20;44.30;;;;;;652809;30;1132;-88
2022/05/21 02:05:17;;;;;;;;;;;26.00;45.70;;;;;;653712;30;1401;-89
2022/05/21 02:05:37;;;;;;;;;;;25.70;46.90;;;;;;655929;30;1193;-88
2022/05/21 02:05:58;;;;;;;;;;;25.90;44.40;;;;;;655863;30;1187;-89
2022/05/21 02:06:19;;;;;;;;;;;25.70;44.00;;;;;;658102;29;1350;-90
2022/05/21 02:06:39;;;;;;;;;;;25.70;43.00;;;;;;657665;30;1215;-88
2022/05/21 02:07:00;;;;;;;;;;;25.70;46.10;;;;;;657598;30;1135;-88
2022/05/21 02:07:23;;;;;;;;;;;26.00;45.40;;;;;;657606;30;1226;-88
2022/05/21 02:07:46;;;;;;;;;;;26.00;43.30;;;;;;658198;30;1225;-88
2022/05/21 02:08:09;;;;;;;;;;;25.70;44.30;;;;;;658508;30;1268;-88
2022/05/21 02:08:30;;;;;;;;;;;26.10;40.90;;;;;;660026;29;1192;-89
2022/05/21 02:08:50;;;;;;;;;;;25.70;45.90;;;;;;660211;29;1142;-89
2022/05/21 02:09:11;;;;;;;;;;;23.10;40.70;;;;;;657737;29;1167;-89
2022/05/21 02:09:32;;;;;;;;;;;25.70;43.40;;;;;;658512;30;1216;-88
2022/05/21 02:09:53;;;;;;;;;;;26.10;43.10;;;;;;657584;29;1426;-88
2022/05/21 02:10:13;;;;;;;;;;;23.10;41.80;;;;;;657684;30;1183;-88
2022/05/21 02:10:34;;;;;;;;;;;25.20;44.30;;;;;;657867;30;1078;-88
2022/05/21 02:10:55;;;;;;;;;;;26.30;40.60;;;;;;660060;29;1483;-89
2022/05/21 02:11:18;;;;;;;;;;;25.80;42.00;;;;;;660180;29;1421;-88
2022/05/21 02:11:39;;;;;;;;;;;25.70;39.20;;;;;;659449;29;1198;-88
2022/05/21 02:12:00;;;;;;;;;;;25.70;38.00;;;;;;655212;30;1262;-89
2022/05/21 02:12:21;;;;;;;;;;;25.80;45.20;;;;;;654416;30;1144;-88
2022/05/21 02:12:42;;;;;;;;;;;26.30;48.90;;;;;;655951;30;1493;-89
2022/05/21 02:13:03;;;;;;;;;;;25.70;44.30;;;;;;658421;29;1123;-89
2022/05/21 02:13:25;;;;;;;;;;;26.20;47.10;;;;;;660220;29;1386;-89
2022/05/21 02:13:48;;;;;;;;;;;26.20;41.10;;;;;;660759;29;1531;-89
2022/05/21 02:14:12;;;;;;;;;;;25.80;42.10;;;;;;659334;29;1065;-91
2022/05/21 02:14:35;;;;;;;;;;;26.10;37.00;;;;;;656266;30;1160;-90
2022/05/21 02:14:56;;;;;;;;;;;25.70;38.70;;;;;;655166;30;1388;-89
2022/05/21 02:15:19;;;;;;;;;;;28.10;48.80;;;;;;656678;30;1220;-89
2022/05/21 02:15:40;;;;;;;;;;;22.60;42.40;;;;;;657560;30;1967;-89
2022/05/21 02:16:00;;;;;;;;;;;28.40;44.30;;;;;;661197;29;1135;-89
2022/05/21 02:16:28;;;;;;;;;;;26.20;47.60;;;;;;660238;29;1336;-89
2022/05/21 02:16:49;;;;;;;;;;;26.00;46.20;;;;;;656118;30;1331;-90
2022/05/21 02:17:15;;;;;;;;;;;26.40;44.60;;;;;;655158;30;1394;-90
2022/05/21 02:17:35;;;;;;;;;;;24.20;40.30;;;;;;655128;30;1211;-89
2022/05/21 02:17:58;;;;;;;;;;;25.70;45.20;;;;;;655124;30;1112;-88
2022/05/21 02:18:21;;;;;;;;;;;26.30;40.80;;;;;;657262;30;1262;-89
2022/05/21 02:18:42;;;;;;;;;;;25.80;39.80;;;;;;655174;30;1391;-89
2022/05/21 02:19:06;;;;;;;;;;;25.70;45.10;;;;;;657581;30;1338;-89
2022/05/21 02:19:28;;;;;;;;;;;24.30;36.90;;;;;;657647;30;1215;-89
2022/05/21 02:19:54;;;;;;;;;;;25.70;40.50;;;;;;657752;30;1199;-90
2022/05/21 02:20:19;;;;;;;;;;;26.40;41.80;;;;;;655201;30;1446;-89
2022/05/21 02:20:40;;;;;;;;;;;25.80;41.30;;;;;;654603;30;1268;-91
2022/05/21 02:21:01;;;;;;;;;;;25.70;40.40;;;;;;652717;30;1165;-88
2022/05/21 02:21:24;;;;;;;;;;;25.90;43.10;;;;;;654408;30;1349;-88
2022/05/21 02:21:47;;;;;;;;;;;23.80;45.80;;;;;;659359;30;1151;-89
2022/05/21 02:22:08;;;;;;;;;;;27.50;37.70;;;;;;659988;29;1356;-89
2022/05/21 02:22:29;;;;;;;;;;;26.00;42.40;;;;;;660208;29;1270;-90
2022/05/21 02:22:52;;;;;;;;;;;26.10;47.00;;;;;;661126;29;1424;-89
2022/05/21 02:23:12;;;;;;;;;;;26.50;45.00;;;;;;660040;29;1284;-89
2022/05/21 02:23:33;;;;;;;;;;;26.00;48.00;;;;;;658986;29;1142;-89
2022/05/21 02:23:54;;;;;;;;;;;26.00;41.90;;;;;;657638;30;1135;-89
2022/05/21 02:24:15;;;;;;;;;;;26.00;40.60;;;;;;657657;30;1135;-88
2022/05/21 02:24:36;;;;;;;;;;;25.90;48.20;;;;;;660080;29;1217;-89
2022/05/21 02:24:56;;;;;;;;;;;23.50;45.50;;;;;;657857;30;1152;-89
2022/05/21 02:25:20;;;;;;;;;;;26.00;45.00;;;;;;660173;29;1190;-88
2022/05/21 02:25:41;;;;;;;;;;;28.20;42.60;;;;;;656943;30;1148;-88
2022/05/21 02:26:02;;;;;;;;;;;25.90;40.20;;;;;;652737;30;1359;-88
2022/05/21 02:26:22;;;;;;;;;;;25.90;41.10;;;;;;653591;30;1425;-88
2022/05/21 02:26:43;;;;;;;;;;;24.50;44.90;;;;;;655827;30;1218;-89
2022/05/21 02:27:07;;;;;;;;;;;23.90;42.90;;;;;;657607;30;1105;-89
2022/05/21 02:27:28;;;;;;;;;;;26.40;43.80;;;;;;659217;30;1254;-89
2022/05/21 02:27:51;;;;;;;;;;;26.10;40.40;;;;;;660917;29;1134;-89
2022/05/21 02:28:13;;;;;;;;;;;25.90;40.50;;;;;;662475;29;1391;-89
2022/05/21 02:28:33;;;;;;;;;;;25.60;39.60;;;;;;662568;29;1170;-88
2022/05/21 02:28:54;;;;;;;;;;;24.00;43.00;;;;;;661600;29;821;-89
2022/05/21 02:29:14;;;;;;;;;;;25.90;44.30;;;;;;661873;29;1304;-89
2022/05/21 02:29:38;;;;;;;;;;;25.90;42.60;;;;;;662583;29;1272;-89
2022/05/21 02:29:59;;;;;;;;;;;25.90;48.40;;;;;;663261;29;1097;-90
2022/05/21 02:30:20;;;;;;;;;;;25.70;45.40;;;;;;665201;29;1169;-88
2022/05/21 02:30:41;;;;;;;;;;;26.10;47.10;;;;;;665169;29;1329;-89
2022/05/21 02:31:04;;;;;;;;;;;25.60;38.10;;;;;;664305;29;1150;-89
2022/05/21 02:31:27;;;;;;;;;;;25.60;35.40;;;;;;662511;29;1127;-90
2022/05/21 02:31:50;;;;;;;;;;;25.60;35.40;;;;;;660189;29;1282;-89
2022/05/21 02:32:12;;;;;;;;;;;25.60;35.40;;;;;;657582;30;1148;-90
2022/05/21 02:32:35;;;;;;;;;;;25.60;35.30;;;;;;657713;30;825;-89
2022/05/21 02:32:56;;;;;;;;;;;25.60;35.30;;;;;;657635;30;1178;-89
2022/05/21 02:33:16;;;;;;;;;;;25.60;35.30;;;;;;659058;30;1139;-89
2022/05/21 02:33:39;;;;;;;;;;;25.60;35.30;;;;;;661192;29;1135;-88
2022/05/21 02:34:00;;;;;;;;;;;25.60;35.40;;;;;;662575;29;1154;-89
2022/05/21 02:34:21;;;;;;;;;;;25.60;35.80;;;;;;662168;29;1512;-89
2022/05/21 02:34:42;;;;;;;;;;;25.60;35.40;;;;;;662516;29;1166;-89
2022/05/21 02:35:02;;;;;;;;;;;25.60;35.40;;;;;;659980;29;1158;-89